Terminal Aerodrome Forecast
Issued by NWS

Current Version | Previous Version | Text Only | Print | Product List | Glossary On
Versions: 1 2 3 4 5 6 7 8 9 10 11 12 13 14 15 16 17 18
000
FTUS44 KCRP 222000 AAA
TAFALI
TAF AMD
KALI 222034Z 2221/2318 16015G25KT P6SM VCTS SCT025CB BKN035
      TEMPO 2221/2222 VRB25G35KT 4SM TSRA BKN025CB
     FM230100 18012KT P6SM SCT035 OVC100
      TEMPO 2302/2306 VRB25G40KT 3SM +TSRA BKN025CB
     FM230800 23007KT P6SM SCT020
     FM231000 27004KT 5SM BR SCT001
     FM231500 27012KT P6SM FEW250=

USA.gov is the U.S. government's official web portal to all federal, state and local government web resources and services.